• Join FlightAware (Why Join?)
  • Login
  • US Flag 
02:21AM EDT


 

Airport Tracker/Info


-or-


 

Live Flight TrackerFlight Track Log ✈ GJS3649 ✈ 08-May-2013 ✈ KBDL - KIAD

Flight Track Log - Related Links

Times and Time Zones

All times are in EDT time to prevent confusion due to time zone crossing. See the GJS3649 flight status page for this flight to view local times or setup timezone preferences in your user account.

Time Position Orientation Groundspeed Altitude Reporting Facility
EDT Latitude Longitude Course Direction KTS MPH feet Rate Location/Type
08:34PM 41.9519 -72.6689 338° Northwest 158 182 900  Level Boston Center
08:35PM 41.9856 -72.6106 52° Northeast 204 235 2,900 2,040 Climbing Boston Center
08:36PM 42.0458 -72.6386 341° North 230 265 5,300 2,160 Climbing Boston Center
08:37PM 42.3368 -72.9745 334° Northwest  Level FlightAware Approximate
08:37PM 42.0978 -72.7086 315° West 264 304 7,400  Level Boston Center
08:38PM 42.4818 -73.0491 340° North  Level FlightAware Approximate
08:38PM 42.1664 -72.7931 318° Northwest 298 343 10,600  Level Boston Center
08:39PM 42.6255 -73.1281 334° Northwest  Level FlightAware Approximate
08:39PM 42.2244 -72.8633 318° Northwest 306 352 12,800  Level Boston Center
08:40PM 42.7677 -73.2120 338° Northwest  Level FlightAware Approximate
08:40PM 42.3014 -72.9508 320° Northwest 327 376 15,400  Level Boston Center
08:41PM 42.3906 -73.0050 336° Northwest 333 383 17,800 1,740 Climbing Boston Center
08:42PM 42.4736 -73.0733 329° Northwest 346 398 18,900 960 Climbing Boston Center
08:43PM 42.5125 -73.2061 292° West 347 399 19,800 540 Climbing Boston Center
08:44PM 42.5447 -73.3531 287° West 374 430 20,000 360 Climbing Boston Center
08:45PM 42.5853 -73.4947 291° West 417 480 20,600 1,140 Climbing Boston Center
08:46PM 42.6464 -73.6342 301° West 423 487 22,300 1,500 Climbing Boston Center
08:47PM 42.6864 -73.7872 290° West 428 493 23,700 1,560 Climbing Boston Center
08:48PM 42.7197 -73.9436 286° West 433 498 25,500 1,800 Climbing Boston Center
08:49PM 42.7550 -74.1000 287° West 433 498 27,300 1,260 Climbing Boston Center
08:50PM 42.7858 -74.2619 285° West 438 504 28,100 780 Climbing Boston Center
08:51PM 42.8122 -74.4297 282° West 443 510 28,900 780 Climbing Boston Center
08:52PM 42.8153 -74.6083 271° West 459 528 29,700 540 Climbing Boston Center
08:53PM 42.8181 -74.7867 271° West 472 543 30,000 120 Climbing Boston Center
08:54PM 42.8203 -74.9736 271° West 487 560 30,000  Level Boston Center
08:55PM 42.8222 -75.1578 271° West 493 567 30,000  Level Boston Center
08:56PM 42.8281 -75.3447 272° West 498 573 30,000  Level Boston Center
08:57PM 42.8289 -75.5489 270° West 498 573 30,000  Level Boston Center
08:59PM 42.6839 -75.7708 228° Southwest 446 513 30,000  Level New York Center
09:00PM 42.5914 -75.8903 224° Southwest 457 526 30,000 -60 Level New York Center
09:01PM 42.4989 -76.0097 224° Southwest 462 532 29,900 -600 Descending New York Center
09:02PM 42.4019 -76.1311 223° Southwest 468 539 28,900 -1,020 Descending New York Center
09:03PM 42.3089 -76.2525 224° Southwest 468 539 28,000 -480 Descending New York Center
09:04PM 42.2158 -76.3736 224° Southwest 473 544 28,000 -180 Level New York Center
09:05PM 42.1206 -76.4939 223° Southwest 473 544 27,700 -720 Descending New York Center
09:06PM 42.0253 -76.6169 224° Southwest 478 550 26,700 -1,200 Descending New York Center
09:07PM 41.9186 -76.7497 223° Southwest 478 550 25,400 -1,380 Descending New York Center
09:08PM 41.8383 -76.8539 224° Southwest 472 543 24,000 -720 Descending New York Center
09:09PM 41.7447 -76.9733 224° Southwest 449 517 24,000  Level New York Center
09:10PM 41.6578 -77.0817 223° Southwest 438 504 24,000  Level New York Center
09:11PM 41.5708 -77.1872 222° Southwest 433 498 24,000  Level New York Center
09:12PM 41.4694 -77.2525 206° Southwest 415 478 24,000  Level New York Center
09:13PM 41.3533 -77.2411 176° South 399 459 24,000 -240 Level New York Center
09:14PM 41.2325 -77.2408 180° South 416 479 23,600 -1,320 Descending New York Center
09:15PM 41.1222 -77.2411 180° South 423 487 21,500 -1,740 Descending New York Center
09:16PM 41.0136 -77.2419 180° South 417 480 20,200 -1,200 Descending New York Center
09:17PM 40.9119 -77.2378 178° South 390 449 19,200 -1,020 Descending New York Center
09:18PM 40.8056 -77.2386 180° South 384 442 18,200 -600 Descending New York Center
09:19PM 40.7014 -77.2369 179° South 384 442 18,000 -120 Descending New York Center
09:20PM 40.6097 -77.2367 180° South 377 434 18,000  Level New York Center
09:21PM 40.4994 -77.2344 179° South 377 434 18,000 -180 Level New York Center
09:22PM 40.4056 -77.2339 180° South 372 428 17,700 -600 Descending New York Center
09:23PM 40.2931 -77.2342 180° South 372 428 16,800 -840 Descending New York Center
09:24PM 40.1994 -77.2308 178° South 367 422 16,100 -840 Descending New York Center
09:25PM 40.0847 -77.2311 180° South 379 436 15,200 -1,020 Descending New York Center
09:27PM 39.9167 -77.2333 181° South 378 435 13,400 -1,020 Descending Potomac TRACON
09:28PM 39.8167 -77.2333 180° South 360 414 12,500 -1,140 Descending Potomac TRACON
09:29PM 39.7333 -77.2833 205° Southwest 310 357 11,200 -1,200 Descending Potomac TRACON
09:30PM 39.6667 -77.3167 201° Southwest 280 322 10,100 -600 Descending Potomac TRACON
09:31PM 39.6000 -77.3667 210° Southwest 270 311 10,000 -540 Descending Potomac TRACON
09:32PM 39.5167 -77.4167 205° Southwest 278 320 9,100 -900 Descending Potomac TRACON
09:33PM 39.4333 -77.4500 197° South 280 322 8,200 -1,080 Descending Potomac TRACON
09:34PM 39.3667 -77.4500 180° South 270 311 6,900 -1,260 Descending Potomac TRACON
09:35PM 39.2833 -77.4500 180° South 268 308 5,700 -1,200 Descending Potomac TRACON
09:36PM 39.2167 -77.4500 180° South 268 308 4,500 -1,080 Descending Potomac TRACON
09:37PM 39.1333 -77.4500 180° South 249 287 3,500 -960 Descending Potomac TRACON
09:38PM 39.0833 -77.4500 180° South 205 236 2,500 -1,020 Descending Potomac TRACON
09:39PM 39.0333 -77.4667 195° South 179 206 1,500 -900 Descending Potomac TRACON
09:40PM 38.9833 -77.4667 180° South 130 150 800 -720 Descending Potomac TRACON